Atalandi — SVBA — position and weather

sailwx.info

Track history (hours):
 
Tides and Currents Weather Stations Pressure Air Temp Water Temp Dewpoint Dewpoint Depression Visibility Wind Speed Wind Dir Waves Ship Positions

Atalandi

Last reported at 2016-May-21 08:33 UTC. Time now 2016-May-26 12:37 UTC.
Position N 35°58' W 025°53'.

Length 248 m; draft 12 m.

Type: Ship. MMSI: 240269000.

Date/timePositionNaut miles runAvg speedWind from/ knotsBaromVisibWave heightAir tempDewpointWater temp
2016-May-21 08:33N 35°58' W 025°53'1211.7
2016-May-21 07:33N 35°58' W 025°38'1211.7
2016-May-21 06:33N 35°58' W 025°24'1211.8
2016-May-21 05:33N 35°57' W 025°09'1212.1
2016-May-21 04:33N 35°58' W 024°54'1212.3
2016-May-21 03:34N 35°57' W 024°39'1212.4
2016-May-21 02:33N 35°58' W 024°24'1212.4
2016-May-21 01:33N 35°58' W 024°09'1212.4
2016-May-21 00:33N 35°58' W 023°53'1212.4
2016-May-20 23:33N 35°58' W 023°38'3012.4
2016-May-20 21:07N 35°58' W 023°01'712.7
2016-May-20 20:32N 35°57' W 022°51'1412.7
2016-May-20 19:24N 35°58' W 022°34'1112.8
2016-May-20 18:33N 35°58' W 022°20'1613.0
2016-May-20 17:20N 35°58' W 022°01'1113.1
2016-May-20 16:28N 35°58' W 021°47'60913.0
2016-May-18 17:32N 35°58' W 009°14'1612.8
2016-May-18 16:15N 35°58' W 008°54'912.8
2016-May-18 15:33N 35°57' W 008°43'1313.0
2016-May-18 14:33N 35°58' W 008°27'1313.1
2016-May-18 13:33N 35°58' W 008°11'1313.1
2016-May-18 12:33N 35°58' W 007°54'11612.8
2016-May-18 03:33N 35°58' W 005°32'10 9.7
2016-May-18 02:33N 36°05' W 005°23'3 2.7
2016-May-18 01:28N 36°08' W 005°23'0 0.0
2016-May-18 00:28N 36°08' W 005°23'0 0.0
2016-May-17 23:25N 36°08' W 005°23'0 0.2
2016-May-17 22:28N 36°08' W 005°23'0 0.1
2016-May-17 21:31N 36°08' W 005°23'0 0.0
2016-May-17 20:10N 36°08' W 005°23'0 0.0
2016-May-17 19:31N 36°08' W 005°23'0 0.1
2016-May-17 18:07N 36°08' W 005°23'3 4.0
2016-May-17 17:26N 36°05' W 005°22'4 4.6
2016-May-17 16:33N 36°06' W 005°17'6 0.8
2016-May-17 09:09N 36°07' W 005°09'1 1.4
2016-May-17 08:31N 36°06' W 005°10'1 1.2
2016-May-17 07:33N 36°05' W 005°10'1 1.3
2016-May-17 06:33N 36°05' W 005°12'19812.8
2016-May-16 15:06N 36°08' W 001°07'712.1
2016-May-16 14:33N 36°08' W 000°58'1313.1
2016-May-16 13:33N 36°08' W 000°42'1313.0
2016-May-16 12:33N 36°07' W 000°26'1212.0
2016-May-16 11:33N 35°58' W 000°17'9 8.6
2016-May-16 10:33N 35°49' W 000°15'9 0.2
2016-May-14 17:30N 35°56' W 000°08'  
Track history (hours):
 
Tides and Currents Weather Stations Pressure Air Temp Water Temp Dewpoint Dewpoint Depression Visibility Wind Speed Wind Dir Waves Ship Positions

Atalandi

Last reported at 2016-May-21 08:33 UTC. Time now 2016-May-26 12:37 UTC.
Position N 35°58' W 025°53'.

Length 248 m; draft 12 m.

Type: Ship. MMSI: 240269000.

Date/timePositionNaut miles runAvg speedWind from/ knotsBaromVisibWave heightAir tempDewpointWater temp
2016-May-21 08:33N 35°58' W 025°53'1211.7
2016-May-21 07:33N 35°58' W 025°38'1211.7
2016-May-21 06:33N 35°58' W 025°24'1211.8
2016-May-21 05:33N 35°57' W 025°09'1212.1
2016-May-21 04:33N 35°58' W 024°54'1212.3
2016-May-21 03:34N 35°57' W 024°39'1212.4
2016-May-21 02:33N 35°58' W 024°24'1212.4
2016-May-21 01:33N 35°58' W 024°09'1212.4
2016-May-21 00:33N 35°58' W 023°53'1212.4
2016-May-20 23:33N 35°58' W 023°38'3012.4
2016-May-20 21:07N 35°58' W 023°01'712.7
2016-May-20 20:32N 35°57' W 022°51'1412.7
2016-May-20 19:24N 35°58' W 022°34'1112.8
2016-May-20 18:33N 35°58' W 022°20'1613.0
2016-May-20 17:20N 35°58' W 022°01'1113.1
2016-May-20 16:28N 35°58' W 021°47'60913.0
2016-May-18 17:32N 35°58' W 009°14'1612.8
2016-May-18 16:15N 35°58' W 008°54'912.8
2016-May-18 15:33N 35°57' W 008°43'1313.0
2016-May-18 14:33N 35°58' W 008°27'1313.1
2016-May-18 13:33N 35°58' W 008°11'1313.1
2016-May-18 12:33N 35°58' W 007°54'11612.8
2016-May-18 03:33N 35°58' W 005°32'10 9.7
2016-May-18 02:33N 36°05' W 005°23'3 2.7
2016-May-18 01:28N 36°08' W 005°23'0 0.0
2016-May-18 00:28N 36°08' W 005°23'0 0.0
2016-May-17 23:25N 36°08' W 005°23'0 0.2
2016-May-17 22:28N 36°08' W 005°23'0 0.1
2016-May-17 21:31N 36°08' W 005°23'0 0.0
2016-May-17 20:10N 36°08' W 005°23'0 0.0
2016-May-17 19:31N 36°08' W 005°23'0 0.1
2016-May-17 18:07N 36°08' W 005°23'3 4.0
2016-May-17 17:26N 36°05' W 005°22'4 4.6
2016-May-17 16:33N 36°06' W 005°17'6 0.8
2016-May-17 09:09N 36°07' W 005°09'1 1.4
2016-May-17 08:31N 36°06' W 005°10'1 1.2
2016-May-17 07:33N 36°05' W 005°10'1 1.3
2016-May-17 06:33N 36°05' W 005°12'19812.8
2016-May-16 15:06N 36°08' W 001°07'712.1
2016-May-16 14:33N 36°08' W 000°58'1313.1
2016-May-16 13:33N 36°08' W 000°42'1313.0
2016-May-16 12:33N 36°07' W 000°26'1212.0
2016-May-16 11:33N 35°58' W 000°17'9 8.6
2016-May-16 10:33N 35°49' W 000°15'9 0.2
2016-May-14 17:30N 35°56' W 000°08'  

Dump ship's entire track history